sensor_id;sensor_type;location;lat;lon;timestamp;pressure;altitude;pressure_sealevel;temperature;humidity
7337;BME280;54510;42.016;23.098;2023-11-19T00:00:45;-21468.97;;;12.16;42.46
7337;BME280;54510;42.016;23.098;2023-11-19T00:03:10;-21468.97;;;12.16;42.51
7337;BME280;54510;42.016;23.098;2023-11-19T00:05:36;-21455.38;;;11.67;42.80
7337;BME280;54510;42.016;23.098;2023-11-19T00:08:01;-21464.13;;;11.99;42.63
7337;BME280;54510;42.016;23.098;2023-11-19T00:10:27;-21467.44;;;12.11;42.53
7337;BME280;54510;42.016;23.098;2023-11-19T00:12:52;-21468.00;;;12.13;42.55
7337;BME280;54510;42.016;23.098;2023-11-19T00:15:18;-21471.75;;;12.26;42.13
7337;BME280;54510;42.016;23.098;2023-11-19T00:17:47;-21469.25;;;12.17;42.44
7337;BME280;54510;42.016;23.098;2023-11-19T00:20:17;-21474.78;;;12.38;42.55
7337;BME280;54510;42.016;23.098;2023-11-19T00:22:43;-21473.13;;;12.32;42.13
7337;BME280;54510;42.016;23.098;2023-11-19T00:25:09;-21462.75;;;11.94;42.76
7337;BME280;54510;42.016;23.098;2023-11-19T00:27:35;-21473.41;;;12.33;42.17
7337;BME280;54510;42.016;23.098;2023-11-19T00:30:03;-21468.97;;;12.16;42.06
7337;BME280;54510;42.016;23.098;2023-11-19T00:32:30;-21469.09;;;12.17;42.23
7337;BME280;54510;42.016;23.098;2023-11-19T00:34:56;-21478.66;;;12.52;41.69
7337;BME280;54510;42.016;23.098;2023-11-19T00:37:21;-21468.41;;;12.14;42.01
7337;BME280;54510;42.016;23.098;2023-11-19T00:39:47;-21470.22;;;12.21;41.87
7337;BME280;54510;42.016;23.098;2023-11-19T00:42:12;-21472.03;;;12.27;42.06
7337;BME280;54510;42.016;23.098;2023-11-19T00:44:37;-21474.50;;;12.37;41.69
7337;BME280;54510;42.016;23.098;2023-11-19T00:47:03;-21474.94;;;12.38;41.98
7337;BME280;54510;42.016;23.098;2023-11-19T00:49:28;-21468.28;;;12.14;42.22
7337;BME280;54510;42.016;23.098;2023-11-19T00:51:54;-21463.16;;;11.95;41.89
7337;BME280;54510;42.016;23.098;2023-11-19T00:54:20;-21470.09;;;12.20;42.03
7337;BME280;54510;42.016;23.098;2023-11-19T00:56:45;-21467.31;;;12.10;41.68
7337;BME280;54510;42.016;23.098;2023-11-19T00:59:10;-21466.47;;;12.07;42.11
7337;BME280;54510;42.016;23.098;2023-11-19T01:01:36;-21465.50;;;12.04;41.99
7337;BME280;54510;42.016;23.098;2023-11-19T01:04:01;-21470.50;;;12.22;41.76
7337;BME280;54510;42.016;23.098;2023-11-19T01:06:28;-21453.31;;;11.59;42.59
7337;BME280;54510;42.016;23.098;2023-11-19T01:08:54;-21473.13;;;12.32;41.75
7337;BME280;54510;42.016;23.098;2023-11-19T01:11:23;-21467.88;;;12.12;42.07
7337;BME280;54510;42.016;23.098;2023-11-19T01:13:49;-21460.09;;;11.84;41.96
7337;BME280;54510;42.016;23.098;2023-11-19T01:16:15;-21470.09;;;12.20;41.82
7337;BME280;54510;42.016;23.098;2023-11-19T01:18:40;-21462.75;;;11.94;42.31
7337;BME280;54510;42.016;23.098;2023-11-19T01:21:06;-21464.25;;;11.99;42.00
7337;BME280;54510;42.016;23.098;2023-11-19T01:23:31;-21465.78;;;12.05;42.09
7337;BME280;54510;42.016;23.098;2023-11-19T01:25:58;-21466.88;;;12.09;41.70
7337;BME280;54510;42.016;23.098;2023-11-19T01:28:23;-21467.03;;;12.09;41.78
7337;BME280;54510;42.016;23.098;2023-11-19T01:30:50;-21479.50;;;12.55;41.16
7337;BME280;54510;42.016;23.098;2023-11-19T01:33:16;-21472.84;;;12.31;41.42
7337;BME280;54510;42.016;23.098;2023-11-19T01:35:41;-21470.34;;;12.21;41.49
7337;BME280;54510;42.016;23.098;2023-11-19T01:38:07;-21473.69;;;12.34;41.33
7337;BME280;54510;42.016;23.098;2023-11-19T01:40:34;-21460.25;;;11.84;42.18
7337;BME280;54510;42.016;23.098;2023-11-19T01:42:59;-21467.72;;;12.12;41.87
7337;BME280;54510;42.016;23.098;2023-11-19T01:45:30;-21467.59;;;12.11;41.59
7337;BME280;54510;42.016;23.098;2023-11-19T01:48:00;-21457.47;;;11.74;41.42
7337;BME280;54510;42.016;23.098;2023-11-19T01:50:28;-21469.53;;;12.18;41.48
7337;BME280;54510;42.016;23.098;2023-11-19T01:52:55;-21468.69;;;12.15;41.50
7337;BME280;54510;42.016;23.098;2023-11-19T01:55:27;-21472.28;;;12.28;41.41
7337;BME280;54510;42.016;23.098;2023-11-19T01:57:54;-21465.91;;;12.05;41.76
7337;BME280;54510;42.016;23.098;2023-11-19T02:00:23;-21469.94;;;12.20;41.49
7337;BME280;54510;42.016;23.098;2023-11-19T02:02:50;-21463.28;;;11.96;41.09
7337;BME280;54510;42.016;23.098;2023-11-19T02:05:17;-21453.03;;;11.58;41.69
7337;BME280;54510;42.016;23.098;2023-11-19T02:07:42;-21463.97;;;11.98;41.81
7337;BME280;54510;42.016;23.098;2023-11-19T02:10:08;-21459.81;;;11.83;41.16
7337;BME280;54510;42.016;23.098;2023-11-19T02:12:40;-21463.16;;;11.95;41.60
7337;BME280;54510;42.016;23.098;2023-11-19T02:15:09;-21465.91;;;12.05;41.54
7337;BME280;54510;42.016;23.098;2023-11-19T02:17:34;-21465.66;;;12.04;41.49
7337;BME280;54510;42.016;23.098;2023-11-19T02:20:03;-21470.78;;;12.23;40.93
7337;BME280;54510;42.016;23.098;2023-11-19T02:22:31;-21464.81;;;12.01;41.35
7337;BME280;54510;42.016;23.098;2023-11-19T02:24:59;-21451.78;;;11.54;41.61
7337;BME280;54510;42.016;23.098;2023-11-19T02:28:17;-21473.41;;;12.33;40.95
7337;BME280;54510;42.016;23.098;2023-11-19T02:30:37;-21471.19;;;12.24;41.07
7337;BME280;54510;42.016;23.098;2023-11-19T02:33:03;-21468.41;;;12.14;41.00
7337;BME280;54510;42.016;23.098;2023-11-19T02:35:31;-21474.94;;;12.38;41.11
7337;BME280;54510;42.016;23.098;2023-11-19T02:37:58;-21470.78;;;12.23;40.79
7337;BME280;54510;42.016;23.098;2023-11-19T02:40:29;-21468.13;;;12.13;40.98
7337;BME280;54510;42.016;23.098;2023-11-19T02:42:55;-21468.97;;;12.16;40.88
7337;BME280;54510;42.016;23.098;2023-11-19T02:45:23;-21467.44;;;12.11;41.30
7337;BME280;54510;42.016;23.098;2023-11-19T02:47:48;-21458.31;;;11.77;41.46
7337;BME280;54510;42.016;23.098;2023-11-19T02:50:14;-21458.84;;;11.79;41.43
7337;BME280;54510;42.016;23.098;2023-11-19T02:52:44;-21457.47;;;11.74;41.77
7337;BME280;54510;42.016;23.098;2023-11-19T02:55:11;-21463.44;;;11.96;41.36
7337;BME280;54510;42.016;23.098;2023-11-19T02:57:40;-21467.88;;;12.12;41.32
7337;BME280;54510;42.016;23.098;2023-11-19T03:00:14;-21466.63;;;12.08;41.39
7337;BME280;54510;42.016;23.098;2023-11-19T03:02:40;-21461.06;;;11.87;41.35
7337;BME280;54510;42.016;23.098;2023-11-19T03:05:12;-21458.44;;;11.78;41.62
7337;BME280;54510;42.016;23.098;2023-11-19T03:07:40;-21465.38;;;12.03;41.35
7337;BME280;54510;42.016;23.098;2023-11-19T03:10:06;-21460.09;;;11.84;41.41
7337;BME280;54510;42.016;23.098;2023-11-19T03:12:31;-21457.06;;;11.73;42.13
7337;BME280;54510;42.016;23.098;2023-11-19T03:14:57;-21458.84;;;11.79;41.39
7337;BME280;54510;42.016;23.098;2023-11-19T03:17:22;-21450.25;;;11.48;42.19
7337;BME280;54510;42.016;23.098;2023-11-19T03:19:49;-21445.41;;;11.30;42.64
7337;BME280;54510;42.016;23.098;2023-11-19T03:22:15;-21446.78;;;11.35;42.79
7337;BME280;54510;42.016;23.098;2023-11-19T03:24:40;-21449.41;;;11.45;42.36
7337;BME280;54510;42.016;23.098;2023-11-19T03:27:05;-21452.59;;;11.57;42.56
7337;BME280;54510;42.016;23.098;2023-11-19T03:29:31;-21455.94;;;11.69;42.06
7337;BME280;54510;42.016;23.098;2023-11-19T03:31:56;-21455.66;;;11.68;42.18
7337;BME280;54510;42.016;23.098;2023-11-19T03:34:22;-21460.94;;;11.87;41.71
7337;BME280;54510;42.016;23.098;2023-11-19T03:36:47;-21451.38;;;11.52;42.38
7337;BME280;54510;42.016;23.098;2023-11-19T03:39:14;-21456.50;;;11.71;42.00
7337;BME280;54510;42.016;23.098;2023-11-19T03:41:39;-21453.44;;;11.60;42.27
7337;BME280;54510;42.016;23.098;2023-11-19T03:44:05;-21455.94;;;11.69;42.05
7337;BME280;54510;42.016;23.098;2023-11-19T03:46:30;-21447.06;;;11.36;42.05
7337;BME280;54510;42.016;23.098;2023-11-19T03:48:56;-21456.78;;;11.72;41.76
7337;BME280;54510;42.016;23.098;2023-11-19T03:51:21;-21452.75;;;11.57;42.17
7337;BME280;54510;42.016;23.098;2023-11-19T03:53:47;-21451.09;;;11.51;42.24
7337;BME280;54510;42.016;23.098;2023-11-19T03:56:12;-21448.16;;;11.40;42.25
7337;BME280;54510;42.016;23.098;2023-11-19T03:58:38;-21448.16;;;11.40;42.52
7337;BME280;54510;42.016;23.098;2023-11-19T04:01:13;-21438.19;;;11.04;43.16
7337;BME280;54510;42.016;23.098;2023-11-19T04:03:38;-21432.50;;;10.83;43.60
7337;BME280;54510;42.016;23.098;2023-11-19T04:06:04;-21438.88;;;11.06;43.35
7337;BME280;54510;42.016;23.098;2023-11-19T04:08:30;-21435.81;;;10.95;43.31
7337;BME280;54510;42.016;23.098;2023-11-19T04:10:55;-21439.28;;;11.08;42.86
7337;BME280;54510;42.016;23.098;2023-11-19T04:13:21;-21438.06;;;11.03;42.75
7337;BME280;54510;42.016;23.098;2023-11-19T04:15:49;-21438.88;;;11.06;43.25
7337;BME280;54510;42.016;23.098;2023-11-19T04:18:14;-21435.69;;;10.95;43.36
7337;BME280;54510;42.016;23.098;2023-11-19T04:20:39;-21436.94;;;10.99;43.09
7337;BME280;54510;42.016;23.098;2023-11-19T04:23:07;-21438.47;;;11.05;42.89
7337;BME280;54510;42.016;23.098;2023-11-19T04:25:33;-21439.84;;;11.10;43.09
7337;BME280;54510;42.016;23.098;2023-11-19T04:27:58;-21436.53;;;10.98;43.40
7337;BME280;54510;42.016;23.098;2023-11-19T04:30:23;-21443.47;;;11.23;43.00
7337;BME280;54510;42.016;23.098;2023-11-19T04:32:49;-21442.91;;;11.21;43.28
7337;BME280;54510;42.016;23.098;2023-11-19T04:35:14;-21444.56;;;11.27;43.07
7337;BME280;54510;42.016;23.098;2023-11-19T04:37:41;-21444.28;;;11.26;43.27
7337;BME280;54510;42.016;23.098;2023-11-19T04:40:07;-21452.59;;;11.57;42.63
7337;BME280;54510;42.016;23.098;2023-11-19T04:42:32;-21447.19;;;11.37;42.96
7337;BME280;54510;42.016;23.098;2023-11-19T04:44:58;-21448.31;;;11.41;43.12
7337;BME280;54510;42.016;23.098;2023-11-19T04:47:23;-21453.44;;;11.60;42.60
7337;BME280;54510;42.016;23.098;2023-11-19T04:49:49;-21440.53;;;11.13;42.86
7337;BME280;54510;42.016;23.098;2023-11-19T04:52:14;-21453.16;;;11.59;42.82
7337;BME280;54510;42.016;23.098;2023-11-19T04:54:43;-21455.09;;;11.66;42.40
7337;BME280;54510;42.016;23.098;2023-11-19T04:57:09;-21446.50;;;11.34;42.90
7337;BME280;54510;42.016;23.098;2023-11-19T04:59:38;-21442.75;;;11.21;43.09
7337;BME280;54510;42.016;23.098;2023-11-19T05:02:04;-21441.38;;;11.16;43.30
7337;BME280;54510;42.016;23.098;2023-11-19T05:04:30;-21450.25;;;11.48;42.83
7337;BME280;54510;42.016;23.098;2023-11-19T05:06:55;-21458.03;;;11.76;42.58
7337;BME280;54510;42.016;23.098;2023-11-19T05:09:20;-21447.75;;;11.39;42.87
7337;BME280;54510;42.016;23.098;2023-11-19T05:11:46;-21439.03;;;11.07;43.11
7337;BME280;54510;42.016;23.098;2023-11-19T05:14:11;-21453.31;;;11.59;42.97
7337;BME280;54510;42.016;23.098;2023-11-19T05:16:39;-21456.50;;;11.71;42.91
7337;BME280;54510;42.016;23.098;2023-11-19T05:19:05;-21447.47;;;11.38;43.40
7337;BME280;54510;42.016;23.098;2023-11-19T05:21:30;-21456.22;;;11.70;42.87
7337;BME280;54510;42.016;23.098;2023-11-19T05:23:56;-21449.00;;;11.43;43.35
7337;BME280;54510;42.016;23.098;2023-11-19T05:26:23;-21459.13;;;11.80;42.96
7337;BME280;54510;42.016;23.098;2023-11-19T05:28:49;-21460.53;;;11.85;42.66
7337;BME280;54510;42.016;23.098;2023-11-19T05:31:16;-21457.31;;;11.74;42.41
7337;BME280;54510;42.016;23.098;2023-11-19T05:33:42;-21452.19;;;11.55;43.29
7337;BME280;54510;42.016;23.098;2023-11-19T05:36:07;-21457.88;;;11.76;42.71
7337;BME280;54510;42.016;23.098;2023-11-19T05:38:36;-21452.19;;;11.55;43.01
7337;BME280;54510;42.016;23.098;2023-11-19T05:41:02;-21453.72;;;11.61;43.21
7337;BME280;54510;42.016;23.098;2023-11-19T05:43:28;-21457.06;;;11.73;42.76
7337;BME280;54510;42.016;23.098;2023-11-19T05:45:53;-21453.84;;;11.61;43.08
7337;BME280;54510;42.016;23.098;2023-11-19T05:48:18;-21445.53;;;11.31;43.10
7337;BME280;54510;42.016;23.098;2023-11-19T05:50:44;-21439.28;;;11.08;43.73
7337;BME280;54510;42.016;23.098;2023-11-19T05:53:10;-21442.91;;;11.21;43.76
7337;BME280;54510;42.016;23.098;2023-11-19T05:55:39;-21446.50;;;11.34;43.31
7337;BME280;54510;42.016;23.098;2023-11-19T05:58:26;-21445.13;;;11.29;43.27
7337;BME280;54510;42.016;23.098;2023-11-19T06:00:54;-21452.75;;;11.57;43.00
7337;BME280;54510;42.016;23.098;2023-11-19T06:03:20;-21447.34;;;11.37;43.24
7337;BME280;54510;42.016;23.098;2023-11-19T06:05:47;-21438.19;;;11.04;43.87
7337;BME280;54510;42.016;23.098;2023-11-19T06:08:13;-21440.28;;;11.12;43.72
7337;BME280;54510;42.016;23.098;2023-11-19T06:10:43;-21444.97;;;11.29;43.61
7337;BME280;54510;42.016;23.098;2023-11-19T06:13:11;-21440.53;;;11.13;43.69
7337;BME280;54510;42.016;23.098;2023-11-19T06:15:37;-21449.28;;;11.44;43.50
7337;BME280;54510;42.016;23.098;2023-11-19T06:18:02;-21449.41;;;11.45;43.29
7337;BME280;54510;42.016;23.098;2023-11-19T06:20:32;-21443.75;;;11.24;43.42
7337;BME280;54510;42.016;23.098;2023-11-19T06:22:58;-21441.66;;;11.17;43.43
7337;BME280;54510;42.016;23.098;2023-11-19T06:25:24;-21445.13;;;11.29;42.74
7337;BME280;54510;42.016;23.098;2023-11-19T06:27:49;-21454.28;;;11.63;43.14
7337;BME280;54510;42.016;23.098;2023-11-19T06:30:15;-21441.94;;;11.18;43.60
7337;BME280;54510;42.016;23.098;2023-11-19T06:32:40;-21449.56;;;11.45;43.39
7337;BME280;54510;42.016;23.098;2023-11-19T06:35:06;-21439.44;;;11.08;43.24
7337;BME280;54510;42.016;23.098;2023-11-19T06:37:32;-21445.13;;;11.29;42.87
7337;BME280;54510;42.016;23.098;2023-11-19T06:39:57;-21452.75;;;11.57;42.39
7337;BME280;54510;42.016;23.098;2023-11-19T06:42:23;-21433.88;;;10.88;43.41
7337;BME280;54510;42.016;23.098;2023-11-19T06:44:48;-21456.22;;;11.70;42.74
7337;BME280;54510;42.016;23.098;2023-11-19T06:47:14;-21455.38;;;11.67;42.83
7337;BME280;54510;42.016;23.098;2023-11-19T06:49:39;-21462.31;;;11.92;42.50
7337;BME280;54510;42.016;23.098;2023-11-19T06:52:05;-21454.28;;;11.63;42.73
7337;BME280;54510;42.016;23.098;2023-11-19T06:54:30;-21446.78;;;11.35;42.69
7337;BME280;54510;42.016;23.098;2023-11-19T06:56:56;-21452.59;;;11.57;42.76
7337;BME280;54510;42.016;23.098;2023-11-19T06:59:23;-21455.25;;;11.66;42.62
7337;BME280;54510;42.016;23.098;2023-11-19T07:01:48;-21451.22;;;11.52;42.80
7337;BME280;54510;42.016;23.098;2023-11-19T07:04:14;-21451.50;;;11.53;42.25
7337;BME280;54510;42.016;23.098;2023-11-19T07:06:39;-21460.53;;;11.85;42.19
7337;BME280;54510;42.016;23.098;2023-11-19T07:09:07;-21453.44;;;11.60;42.18
7337;BME280;54510;42.016;23.098;2023-11-19T07:11:37;-21459.53;;;11.82;41.85
7337;BME280;54510;42.016;23.098;2023-11-19T07:14:04;-21454.13;;;11.62;42.20
7337;BME280;54510;42.016;23.098;2023-11-19T07:16:29;-21467.88;;;12.12;41.68
7337;BME280;54510;42.016;23.098;2023-11-19T07:18:55;-21469.53;;;12.18;41.20
7337;BME280;54510;42.016;23.098;2023-11-19T07:21:20;-21458.31;;;11.77;41.65
7337;BME280;54510;42.016;23.098;2023-11-19T07:23:46;-21458.31;;;11.77;41.78
7337;BME280;54510;42.016;23.098;2023-11-19T07:26:12;-21451.50;;;11.53;42.07
7337;BME280;54510;42.016;23.098;2023-11-19T07:28:37;-21459.69;;;11.82;41.55
7337;BME280;54510;42.016;23.098;2023-11-19T07:31:05;-21466.19;;;12.06;41.27
7337;BME280;54510;42.016;23.098;2023-11-19T07:33:32;-21457.19;;;11.73;41.62
7337;BME280;54510;42.016;23.098;2023-11-19T07:35:58;-21458.16;;;11.77;41.64
7337;BME280;54510;42.016;23.098;2023-11-19T07:38:24;-21454.41;;;11.63;42.15
7337;BME280;54510;42.016;23.098;2023-11-19T07:40:49;-21447.63;;;11.38;42.14
7337;BME280;54510;42.016;23.098;2023-11-19T07:43:15;-21458.31;;;11.77;41.83
7337;BME280;54510;42.016;23.098;2023-11-19T07:45:40;-21459.13;;;11.80;41.79
7337;BME280;54510;42.016;23.098;2023-11-19T07:48:10;-21455.78;;;11.68;41.96
7337;BME280;54510;42.016;23.098;2023-11-19T07:50:38;-21455.38;;;11.67;41.97
7337;BME280;54510;42.016;23.098;2023-11-19T07:53:04;-21457.59;;;11.75;41.68
7337;BME280;54510;42.016;23.098;2023-11-19T07:55:29;-21440.13;;;11.11;41.81
7337;BME280;54510;42.016;23.098;2023-11-19T07:57:55;-21456.22;;;11.70;41.96
7337;BME280;54510;42.016;23.098;2023-11-19T08:00:21;-21463.28;;;11.96;41.26
7337;BME280;54510;42.016;23.098;2023-11-19T08:02:46;-21448.03;;;11.40;41.88
7337;BME280;54510;42.016;23.098;2023-11-19T08:05:11;-21441.25;;;11.15;42.44
7337;BME280;54510;42.016;23.098;2023-11-19T08:07:37;-21437.91;;;11.03;42.96
7337;BME280;54510;42.016;23.098;2023-11-19T08:10:04;-21448.88;;;11.43;42.53
7337;BME280;54510;42.016;23.098;2023-11-19T08:12:30;-21449.84;;;11.46;41.78
7337;BME280;54510;42.016;23.098;2023-11-19T08:14:56;-21444.84;;;11.28;41.55
7337;BME280;54510;42.016;23.098;2023-11-19T08:17:24;-21451.50;;;11.53;41.32
7337;BME280;54510;42.016;23.098;2023-11-19T08:19:49;-21449.56;;;11.45;40.79
7337;BME280;54510;42.016;23.098;2023-11-19T08:22:15;-21454.56;;;11.64;41.07
7337;BME280;54510;42.016;23.098;2023-11-19T08:24:42;-21462.88;;;11.94;40.88
7337;BME280;54510;42.016;23.098;2023-11-19T08:27:08;-21460.38;;;11.85;40.61
7337;BME280;54510;42.016;23.098;2023-11-19T08:29:33;-21467.88;;;12.12;39.89
7337;BME280;54510;42.016;23.098;2023-11-19T08:32:00;-21469.25;;;12.17;39.88
7337;BME280;54510;42.016;23.098;2023-11-19T08:34:27;-21456.78;;;11.72;40.99
7337;BME280;54510;42.016;23.098;2023-11-19T08:36:52;-21475.22;;;12.39;40.05
7337;BME280;54510;42.016;23.098;2023-11-19T08:39:21;-21472.03;;;12.27;39.70
7337;BME280;54510;42.016;23.098;2023-11-19T08:41:49;-21476.59;;;12.44;39.50
7337;BME280;54510;42.016;23.098;2023-11-19T08:44:15;-21469.94;;;12.20;39.92
7337;BME280;54510;42.016;23.098;2023-11-19T08:46:50;-21474.38;;;12.36;39.84
7337;BME280;54510;42.016;23.098;2023-11-19T08:49:16;-21477.41;;;12.47;39.37
7337;BME280;54510;42.016;23.098;2023-11-19T08:51:41;-21466.75;;;12.08;40.14
7337;BME280;54510;42.016;23.098;2023-11-19T08:54:07;-21469.53;;;12.18;39.25
7337;BME280;54510;42.016;23.098;2023-11-19T08:56:32;-21461.75;;;11.90;40.04
7337;BME280;54510;42.016;23.098;2023-11-19T08:59:00;-21479.22;;;12.54;39.45
7337;BME280;54510;42.016;23.098;2023-11-19T09:01:25;-21480.59;;;12.59;38.79
7337;BME280;54510;42.016;23.098;2023-11-19T09:03:51;-21478.13;;;12.50;38.92
7337;BME280;54510;42.016;23.098;2023-11-19T09:06:17;-21470.09;;;12.20;39.14
7337;BME280;54510;42.016;23.098;2023-11-19T09:08:42;-21463.16;;;11.95;39.62
7337;BME280;54510;42.016;23.098;2023-11-19T09:11:08;-21463.72;;;11.97;39.20
7337;BME280;54510;42.016;23.098;2023-11-19T09:13:34;-21471.47;;;12.25;39.07
7337;BME280;54510;42.016;23.098;2023-11-19T09:16:00;-21481.03;;;12.60;38.49
7337;BME280;54510;42.016;23.098;2023-11-19T09:18:29;-21482.53;;;12.66;37.92
7337;BME280;54510;42.016;23.098;2023-11-19T09:20:55;-21483.09;;;12.68;38.19
7337;BME280;54510;42.016;23.098;2023-11-19T09:23:20;-21467.88;;;12.12;38.50
7337;BME280;54510;42.016;23.098;2023-11-19T09:25:46;-21467.16;;;12.10;38.58
7337;BME280;54510;42.016;23.098;2023-11-19T09:28:11;-21472.44;;;12.29;38.31
7337;BME280;54510;42.016;23.098;2023-11-19T09:30:36;-21472.72;;;12.30;38.47
7337;BME280;54510;42.016;23.098;2023-11-19T09:33:02;-21468.00;;;12.13;38.88
7337;BME280;54510;42.016;23.098;2023-11-19T09:35:27;-21476.59;;;12.44;38.57
7337;BME280;54510;42.016;23.098;2023-11-19T09:37:53;-21471.03;;;12.24;38.37
7337;BME280;54510;42.016;23.098;2023-11-19T09:40:18;-21469.09;;;12.17;38.44
7337;BME280;54510;42.016;23.098;2023-11-19T09:42:44;-21465.38;;;12.03;38.99
7337;BME280;54510;42.016;23.098;2023-11-19T09:45:15;-21471.88;;;12.27;38.68
7337;BME280;54510;42.016;23.098;2023-11-19T09:47:45;-21474.09;;;12.35;38.25
7337;BME280;54510;42.016;23.098;2023-11-19T09:50:20;-21477.28;;;12.47;38.20
7337;BME280;54510;42.016;23.098;2023-11-19T09:52:48;-21473.53;;;12.33;37.70
7337;BME280;54510;42.016;23.098;2023-11-19T09:55:14;-21469.53;;;12.18;37.81
7337;BME280;54510;42.016;23.098;2023-11-19T09:57:40;-21482.69;;;12.66;36.84
7337;BME280;54510;42.016;23.098;2023-11-19T10:00:10;-21478.53;;;12.51;37.22
7337;BME280;54510;42.016;23.098;2023-11-19T10:02:37;-21486.28;;;12.80;36.88
7337;BME280;54510;42.016;23.098;2023-11-19T10:05:09;-21476.03;;;12.42;37.10
7337;BME280;54510;42.016;23.098;2023-11-19T10:07:35;-21480.75;;;12.59;37.42
7337;BME280;54510;42.016;23.098;2023-11-19T10:10:04;-21479.78;;;12.56;37.40
7337;BME280;54510;42.016;23.098;2023-11-19T10:12:30;-21468.41;;;12.14;37.89
7337;BME280;54510;42.016;23.098;2023-11-19T10:14:57;-21475.22;;;12.39;37.29
7337;BME280;54510;42.016;23.098;2023-11-19T10:17:29;-21481.44;;;12.62;36.87
7337;BME280;54510;42.016;23.098;2023-11-19T10:19:57;-21479.38;;;12.54;37.08
7337;BME280;54510;42.016;23.098;2023-11-19T10:22:23;-21483.50;;;12.70;36.91
7337;BME280;54510;42.016;23.098;2023-11-19T10:24:49;-21479.91;;;12.56;36.52
7337;BME280;54510;42.016;23.098;2023-11-19T10:27:15;-21490.03;;;12.93;36.47
7337;BME280;54510;42.016;23.098;2023-11-19T10:29:44;-21489.19;;;12.90;36.87
7337;BME280;54510;42.016;23.098;2023-11-19T10:32:12;-21495.00;;;13.12;36.94
7337;BME280;54510;42.016;23.098;2023-11-19T10:34:37;-21498.75;;;13.25;36.59
7337;BME280;54510;42.016;23.098;2023-11-19T10:37:05;-21506.06;;;13.52;36.80
7337;BME280;54510;42.016;23.098;2023-11-19T10:39:51;-21502.63;;;13.39;35.95
7337;BME280;54510;42.016;23.098;2023-11-19T10:42:18;-21490.16;;;12.94;37.29
7337;BME280;54510;42.016;23.098;2023-11-19T10:44:43;-21494.44;;;13.10;36.66
7337;BME280;54510;42.016;23.098;2023-11-19T10:47:10;-21489.31;;;12.91;37.02
7337;BME280;54510;42.016;23.098;2023-11-19T10:49:37;-21504.13;;;13.45;36.69
7337;BME280;54510;42.016;23.098;2023-11-19T10:52:05;-21498.59;;;13.25;36.85
7337;BME280;54510;42.016;23.098;2023-11-19T10:54:30;-21503.03;;;13.41;36.71
7337;BME280;54510;42.016;23.098;2023-11-19T10:57:01;-21505.78;;;13.51;36.10
7337;BME280;54510;42.016;23.098;2023-11-19T10:59:30;-21504.97;;;13.48;36.82
7337;BME280;54510;42.016;23.098;2023-11-19T11:01:57;-21512.31;;;13.75;36.82
7337;BME280;54510;42.016;23.098;2023-11-19T11:04:24;-21510.22;;;13.67;37.62
7337;BME280;54510;42.016;23.098;2023-11-19T11:06:51;-21504.00;;;13.44;37.28
7337;BME280;54510;42.016;23.098;2023-11-19T11:09:19;-21499.84;;;13.29;37.77
7337;BME280;54510;42.016;23.098;2023-11-19T11:11:47;-21509.13;;;13.63;36.54
7337;BME280;54510;42.016;23.098;2023-11-19T11:14:13;-21516.03;;;13.89;37.62
7337;BME280;54510;42.016;23.098;2023-11-19T11:16:46;-21521.00;;;14.07;35.81
7337;BME280;54510;42.016;23.098;2023-11-19T11:19:12;-21508.44;;;13.61;36.15
7337;BME280;54510;42.016;23.098;2023-11-19T11:21:39;-21520.72;;;14.06;35.77
7337;BME280;54510;42.016;23.098;2023-11-19T11:29:51;-21526.25;;;14.26;35.83
7337;BME280;54510;42.016;23.098;2023-11-19T11:37:35;-21512.84;;;13.77;35.83
7337;BME280;54510;42.016;23.098;2023-11-19T11:40:03;-21516.88;;;13.92;35.89
7337;BME280;54510;42.016;23.098;2023-11-19T11:42:38;-21508.56;;;13.61;35.99
7337;BME280;54510;42.016;23.098;2023-11-19T11:45:08;-21521.16;;;14.07;36.04
7337;BME280;54510;42.016;23.098;2023-11-19T11:50:11;-21519.75;;;14.02;35.75
7337;BME280;54510;42.016;23.098;2023-11-19T11:57:59;-21522.81;;;14.13;35.69
7337;BME280;54510;42.016;23.098;2023-11-19T12:00:29;-21530.41;;;14.41;35.62
7337;BME280;54510;42.016;23.098;2023-11-19T12:02:56;-21521.41;;;14.08;35.34
7337;BME280;54510;42.016;23.098;2023-11-19T12:05:22;-21535.38;;;14.59;35.17
7337;BME280;54510;42.016;23.098;2023-11-19T12:08:00;-21538.97;;;14.73;35.17
7337;BME280;54510;42.016;23.098;2023-11-19T12:10:29;-21535.38;;;14.59;34.84
7337;BME280;54510;42.016;23.098;2023-11-19T12:13:01;-21545.59;;;14.97;34.37
7337;BME280;54510;42.016;23.098;2023-11-19T12:15:27;-21548.09;;;15.06;34.13
7337;BME280;54510;42.016;23.098;2023-11-19T12:17:56;-21553.88;;;15.27;33.89
7337;BME280;54510;42.016;23.098;2023-11-19T12:20:26;-21549.75;;;15.12;33.98
7337;BME280;54510;42.016;23.098;2023-11-19T12:22:53;-21550.97;;;15.17;34.08
7337;BME280;54510;42.016;23.098;2023-11-19T12:25:19;-21552.63;;;15.23;33.60
7337;BME280;54510;42.016;23.098;2023-11-19T12:27:50;-21547.81;;;15.05;33.87
7337;BME280;54510;42.016;23.098;2023-11-19T12:30:25;-21541.47;;;14.82;34.27
7337;BME280;54510;42.016;23.098;2023-11-19T12:32:51;-21550.84;;;15.16;34.11
7337;BME280;54510;42.016;23.098;2023-11-19T12:35:19;-21556.38;;;15.36;33.97
7337;BME280;54510;42.016;23.098;2023-11-19T12:37:49;-21566.44;;;15.73;33.44
7337;BME280;54510;42.016;23.098;2023-11-19T12:40:19;-21562.72;;;15.60;32.88
7337;BME280;54510;42.016;23.098;2023-11-19T12:42:46;-21551.41;;;15.18;33.69
7337;BME280;54510;42.016;23.098;2023-11-19T12:45:12;-21559.41;;;15.48;33.56
7337;BME280;54510;42.016;23.098;2023-11-19T12:47:44;-21569.75;;;15.86;32.98
7337;BME280;54510;42.016;23.098;2023-11-19T12:50:13;-21563.81;;;15.64;32.74
7337;BME280;54510;42.016;23.098;2023-11-19T12:52:39;-21572.94;;;15.97;32.42
7337;BME280;54510;42.016;23.098;2023-11-19T12:55:05;-21566.72;;;15.74;32.78
7337;BME280;54510;42.016;23.098;2023-11-19T12:57:48;-21570.31;;;15.88;32.98
7337;BME280;54510;42.016;23.098;2023-11-19T13:00:25;-21570.44;;;15.88;32.49
7337;BME280;54510;42.016;23.098;2023-11-19T13:02:58;-21571.53;;;15.92;32.60
7337;BME280;54510;42.016;23.098;2023-11-19T13:05:31;-21574.16;;;16.02;32.55
7337;BME280;54510;42.016;23.098;2023-11-19T13:10:28;-21565.88;;;15.71;32.56